| time (UTC) | temp C | wind direction | speed KPH | gust KPH | rain 1hr cm | rain 24hr cm | rain mn cm | humidity % | barometer mb |
| 20260507000540 | 13 | 235 | 0.0 | 9.7 | 0.00 | 0.69 | 0.69 | 94 | 1006.5 |
| 20260507000052 | 13 | 200 | 0.0 | 9.7 | 0.00 | 0.69 | 0.69 | 93 | 1006.6 |
| 20260506235539 | 13 | 204 | 3.2 | 8.0 | 0.00 | 0.69 | 0.69 | 94 | 1006.4 |
| 20260506235040 | 13 | 190 | 1.6 | 4.8 | 0.03 | 0.69 | 0.69 | 93 | 1006.5 |
| 20260506234558 | 13 | 228 | 0.0 | 3.2 | 0.03 | 0.69 | 0.69 | 94 | 1006.5 |
| 20260506234039 | 14 | 223 | 1.6 | 4.8 | 0.03 | 0.69 | 0.69 | 94 | 1006.5 |
| 20260506233541 | 14 | 0 | 0.0 | 8.0 | 0.05 | 0.69 | 0.69 | 93 | 1006.4 |
| 20260506233053 | 14 | 223 | 0.0 | 8.0 | 0.08 | 0.69 | 0.69 | 93 | 1006.3 |
| 20260506232539 | 14 | 218 | 0.0 | 3.2 | 0.10 | 0.69 | 0.69 | 94 | 1006.4 |
| 20260506232040 | 14 | 238 | 0.0 | 6.4 | 0.13 | 0.69 | 0.69 | 94 | 1006.5 |
| 20260506231554 | 14 | 0 | 1.6 | 6.4 | 0.13 | 0.69 | 0.69 | 94 | 1006.5 |
| 20260506231039 | 14 | 0 | 0.0 | 4.8 | 0.13 | 0.69 | 0.69 | 94 | 1006.2 |
| 20260506230540 | 14 | 257 | 0.0 | 4.8 | 0.13 | 0.69 | 0.69 | 94 | 1006.4 |
| 20260506230050 | 14 | 0 | 0.0 | 4.8 | 0.15 | 0.69 | 0.69 | 94 | 1006.4 |
| 20260506225543 | 14 | 183 | 0.0 | 4.8 | 0.15 | 0.69 | 0.69 | 94 | 1006.2 |
| 20260506225041 | 14 | 193 | 1.6 | 4.8 | 0.13 | 0.66 | 0.66 | 93 | 1006.5 |
| 20260506224606 | 14 | 0 | 0.0 | 4.8 | 0.15 | 0.66 | 0.66 | 93 | 1006.5 |
| 20260506224039 | 14 | 202 | 1.6 | 6.4 | 0.15 | 0.66 | 0.66 | 93 | 1006.6 |
| 20260506223540 | 14 | 186 | 0.0 | 6.4 | 0.15 | 0.64 | 0.64 | 93 | 1006.6 |
| 20260506223054 | 14 | 254 | 1.6 | 6.4 | 0.15 | 0.61 | 0.61 | 93 | 1006.6 |
| 20260506222541 | 14 | 198 | 1.6 | 6.4 | 0.15 | 0.58 | 0.58 | 93 | 1006.6 |
| 20260506222040 | 14 | 0 | 0.0 | 4.8 | 0.15 | 0.56 | 0.56 | 93 | 1006.7 |
| 20260506221550 | 14 | 0 | 0.0 | 8.0 | 0.15 | 0.56 | 0.56 | 93 | 1006.6 |
| 20260506221039 | 14 | 200 | 1.6 | 8.0 | 0.20 | 0.56 | 0.56 | 93 | 1006.6 |
| 20260506220539 | 14 | 235 | 0.0 | 4.8 | 0.23 | 0.56 | 0.56 | 93 | 1006.7 |
| 20260506220101 | 14 | 222 | 0.0 | 6.4 | 0.20 | 0.53 | 0.53 | 93 | 1006.7 |
| 20260506215541 | 14 | 0 | 1.6 | 6.4 | 0.20 | 0.53 | 0.53 | 93 | 1006.8 |
| 20260506215041 | 14 | 0 | 0.0 | 4.8 | 0.18 | 0.51 | 0.51 | 93 | 1006.7 |
| 20260506214551 | 14 | 217 | 1.6 | 9.7 | 0.18 | 0.51 | 0.51 | 93 | 1006.8 |
| 20260506214039 | 14 | 0 | 1.6 | 9.7 | 0.18 | 0.51 | 0.51 | 92 | 1006.8 |
| 20260506213539 | 14 | 242 | 1.6 | 4.8 | 0.15 | 0.48 | 0.48 | 93 | 1006.7 |
| 20260506213049 | 14 | 0 | 0.0 | 4.8 | 0.13 | 0.46 | 0.46 | 93 | 1006.8 |
| 20260506212540 | 14 | 205 | 0.0 | 8.0 | 0.13 | 0.43 | 0.43 | 92 | 1006.9 |
| 20260506212040 | 14 | 0 | 1.6 | 8.0 | 0.10 | 0.41 | 0.41 | 92 | 1006.9 |
| 20260506211554 | 14 | 200 | 0.0 | 4.8 | 0.10 | 0.41 | 0.41 | 92 | 1006.9 |
| 20260506211040 | 14 | 198 | 1.6 | 8.0 | 0.08 | 0.36 | 0.36 | 92 | 1007.0 |
| 20260506210540 | 14 | 193 | 1.6 | 8.0 | 0.05 | 0.33 | 0.33 | 91 | 1007.1 |
| 20260506210054 | 14 | 173 | 1.6 | 8.0 | 0.08 | 0.33 | 0.33 | 91 | 1007.1 |
| 20260506205539 | 14 | 157 | 1.6 | 8.0 | 0.08 | 0.33 | 0.33 | 92 | 1007.0 |
| 20260506205039 | 14 | 254 | 1.6 | 6.4 | 0.08 | 0.33 | 0.33 | 92 | 1007.1 |
| 20260506204548 | 14 | 0 | 1.6 | 8.0 | 0.10 | 0.33 | 0.33 | 92 | 1007.1 |
| 20260506204039 | 15 | 257 | 1.6 | 8.0 | 0.10 | 0.33 | 0.33 | 91 | 1007.2 |
| 20260506203540 | 15 | 171 | 1.6 | 6.4 | 0.13 | 0.33 | 0.33 | 92 | 1007.2 |
| 20260506203058 | 15 | 188 | 1.6 | 6.4 | 0.13 | 0.33 | 0.33 | 91 | 1007.2 |
| 20260506202541 | 15 | 272 | 1.6 | 6.4 | 0.10 | 0.30 | 0.30 | 91 | 1007.2 |
| 20260506202039 | 15 | 202 | 0.0 | 6.4 | 0.10 | 0.30 | 0.30 | 92 | 1007.5 |
| 20260506201551 | 15 | 232 | 1.6 | 6.4 | 0.08 | 0.28 | 0.28 | 91 | 1007.2 |
| 20260506201040 | 15 | 238 | 1.6 | 4.8 | 0.08 | 0.28 | 0.28 | 91 | 1007.4 |
| 20260506200539 | 15 | 169 | 0.0 | 6.4 | 0.10 | 0.28 | 0.28 | 91 | 1007.3 |
| 20260506200051 | 15 | 0 | 0.0 | 8.0 | 0.08 | 0.25 | 0.25 | 91 | 1007.5 |
| 20260506195540 | 15 | 181 | 1.6 | 8.0 | 0.08 | 0.25 | 0.25 | 91 | 1007.5 |
| 20260506195041 | 15 | 227 | 1.6 | 6.4 | 0.08 | 0.25 | 0.25 | 91 | 1007.4 |
| 20260506194553 | 15 | 168 | 0.0 | 6.4 | 0.08 | 0.23 | 0.23 | 91 | 1007.4 |
| 20260506194040 | 15 | 239 | 3.2 | 8.0 | 0.08 | 0.23 | 0.23 | 90 | 1007.5 |
| 20260506193539 | 15 | 167 | 3.2 | 8.0 | 0.05 | 0.20 | 0.20 | 90 | 1007.6 |
| 20260506193052 | 15 | 170 | 1.6 | 6.4 | 0.08 | 0.20 | 0.20 | 91 | 1007.5 |
| 20260506192540 | 15 | 175 | 1.6 | 6.4 | 0.10 | 0.20 | 0.20 | 90 | 1007.5 |
| 20260506192040 | 15 | 186 | 1.6 | 6.4 | 0.13 | 0.20 | 0.20 | 90 | 1007.6 |
| 20260506191548 | 15 | 195 | 1.6 | 8.0 | 0.13 | 0.20 | 0.20 | 90 | 1007.5 |
| 20260506191040 | 15 | 171 | 3.2 | 8.0 | 0.15 | 0.20 | 0.20 | 90 | 1007.6 |
| 20260506190542 | 15 | 219 | 1.6 | 9.7 | 0.13 | 0.18 | 0.18 | 90 | 1007.6 |
| 20260506190052 | 15 | 210 | 3.2 | 9.7 | 0.13 | 0.18 | 0.18 | 90 | 1007.5 |
| 20260506185539 | 15 | 221 | 0.0 | 4.8 | 0.15 | 0.18 | 0.18 | 90 | 1007.7 |
| 20260506185040 | 15 | 213 | 0.0 | 6.4 | 0.18 | 0.18 | 0.18 | 90 | 1007.6 |
| 20260506184551 | 16 | 0 | 0.0 | 8.0 | 0.15 | 0.15 | 0.15 | 89 | 1007.3 |
| 20260506184040 | 16 | 219 | 1.6 | 8.0 | 0.15 | 0.15 | 0.15 | 88 | 1007.5 |
| 20260506183543 | 16 | 140 | 1.6 | 8.0 | 0.15 | 0.15 | 0.15 | 88 | 1007.7 |
| 20260506183058 | 16 | 0 | 1.6 | 8.0 | 0.13 | 0.13 | 0.13 | 87 | 1007.8 |
| 20260506182540 | 16 | 206 | 1.6 | 8.0 | 0.10 | 0.10 | 0.10 | 87 | 1007.8 |
| 20260506182039 | 16 | 190 | 0.0 | 3.2 | 0.08 | 0.08 | 0.08 | 86 | 1008.2 |
| 20260506181604 | 16 | 0 | 0.0 | 3.2 | 0.08 | 0.08 | 0.08 | 86 | 1008.2 |
| 20260506181040 | 17 | 223 | 0.0 | 4.8 | 0.05 | 0.05 | 0.05 | 85 | 1008.3 |
| 20260506180541 | 17 | 0 | 0.0 | 4.8 | 0.05 | 0.05 | 0.05 | 83 | 1008.1 |
| 20260506180054 | 17 | 0 | 1.6 | 6.4 | 0.03 | 0.03 | 0.03 | 82 | 1008.3 |
| 20260506175540 | 17 | 0 | 0.0 | 6.4 | 0.03 | 0.03 | 0.03 | 80 | 1008.5 |
| 20260506175039 | 18 | 313 | 1.6 | 6.4 | 0.00 | 0.00 | 0.00 | 78 | 1008.5 |
| 20260506174545 | 18 | 285 | 1.6 | 14.5 | 0.00 | 0.00 | 0.00 | 74 | 1008.5 |
| 20260506174040 | 19 | 237 | 3.2 | 14.5 | 0.00 | 0.00 | 0.00 | 72 | 1008.6 |
| 20260506173542 | 20 | 259 | 1.6 | 12.9 | 0.00 | 0.00 | 0.00 | 69 | 1008.5 |
| 20260506173107 | 20 | 157 | 4.8 | 12.9 | 0.00 | 0.00 | 0.00 | 67 | 1008.2 |
| 20260506172541 | 20 | 178 | 3.2 | 9.7 | 0.00 | 0.00 | 0.00 | 67 | 1008.1 |
| 20260506172041 | 20 | 207 | 1.6 | 8.0 | 0.00 | 0.00 | 0.00 | 66 | 1008.1 |
| 20260506171553 | 20 | 199 | 3.2 | 14.5 | 0.00 | 0.00 | 0.00 | 65 | 1008.1 |
| 20260506171043 | 20 | 132 | 4.8 | 14.5 | 0.00 | 0.00 | 0.00 | 64 | 1008.0 |
| 20260506170541 | 20 | 217 | 1.6 | 11.3 | 0.00 | 0.00 | 0.00 | 65 | 1008.0 |
| 20260506170059 | 20 | 155 | 4.8 | 14.5 | 0.00 | 0.00 | 0.00 | 64 | 1008.1 |
| 20260506165543 | 20 | 212 | 4.8 | 16.1 | 0.00 | 0.00 | 0.00 | 63 | 1008.2 |
| 20260506165041 | 21 | 183 | 4.8 | 16.1 | 0.00 | 0.00 | 0.00 | 62 | 1008.1 |
| 20260506164552 | 21 | 253 | 3.2 | 11.3 | 0.00 | 0.00 | 0.00 | 62 | 1008.3 |
| 20260506164040 | 21 | 213 | 3.2 | 9.7 | 0.00 | 0.00 | 0.00 | 62 | 1008.2 |
| 20260506163544 | 21 | 269 | 3.2 | 14.5 | 0.00 | 0.00 | 0.00 | 62 | 1008.2 |
| 20260506163047 | 20 | 192 | 4.8 | 14.5 | 0.00 | 0.00 | 0.00 | 63 | 1008.2 |
| 20260506162542 | 20 | 181 | 1.6 | 8.0 | 0.00 | 0.00 | 0.00 | 64 | 1008.4 |
| 20260506162042 | 20 | 246 | 1.6 | 6.4 | 0.00 | 0.00 | 0.00 | 65 | 1008.5 |
| 20260506161550 | 20 | 211 | 1.6 | 8.0 | 0.00 | 0.00 | 0.00 | 64 | 1008.6 |
| 20260506161040 | 20 | 194 | 1.6 | 9.7 | 0.00 | 0.00 | 0.00 | 64 | 1008.8 |
| 20260506160540 | 20 | 210 | 1.6 | 11.3 | 0.00 | 0.00 | 0.00 | 64 | 1008.9 |
| 20260506155541 | 20 | 248 | 3.2 | 16.1 | 0.00 | 0.00 | 0.00 | 64 | 1009.1 |
| 20260506155041 | 20 | 207 | 6.4 | 16.1 | 0.00 | 0.00 | 0.00 | 64 | 1009.1 |
| 20260506154551 | 20 | 243 | 1.6 | 9.7 | 0.00 | 0.00 | 0.00 | 65 | 1009.2 |
| 20260506154043 | 20 | 161 | 1.6 | 9.7 | 0.00 | 0.00 | 0.00 | 64 | 1009.2 |
| 20260506153540 | 20 | 216 | 1.6 | 12.9 | 0.00 | 0.00 | 0.00 | 66 | 1009.3 |
| 20260506153047 | 20 | 253 | 3.2 | 14.5 | 0.00 | 0.00 | 0.00 | 65 | 1009.4 |
| 20260506152540 | 20 | 184 | 4.8 | 14.5 | 0.00 | 0.00 | 0.00 | 65 | 1009.3 |
| 20260506152041 | 20 | 200 | 1.6 | 12.9 | 0.00 | 0.00 | 0.00 | 66 | 1009.3 |
| 20260506151547 | 20 | 190 | 3.2 | 12.9 | 0.00 | 0.00 | 0.00 | 65 | 1009.4 |
| 20260506151040 | 20 | 309 | 1.6 | 11.3 | 0.00 | 0.00 | 0.00 | 66 | 1009.5 |
| 20260506150542 | 20 | 194 | 3.2 | 14.5 | 0.00 | 0.00 | 0.00 | 66 | 1009.6 |
| 20260506150051 | 20 | 241 | 1.6 | 16.1 | 0.00 | 0.00 | 0.00 | 67 | 1009.6 |
| 20260506145541 | 20 | 351 | 3.2 | 16.1 | 0.00 | 0.00 | 0.00 | 66 | 1009.7 |
| 20260506145040 | 20 | 142 | 3.2 | 9.7 | 0.00 | 0.00 | 0.00 | 67 | 1009.6 |
| 20260506144552 | 20 | 248 | 1.6 | 9.7 | 0.00 | 0.00 | 0.00 | 68 | 1009.6 |
| 20260506144040 | 20 | 240 | 3.2 | 12.9 | 0.00 | 0.00 | 0.00 | 68 | 1009.5 |
| 20260506143539 | 19 | 189 | 4.8 | 14.5 | 0.00 | 0.00 | 0.00 | 68 | 1009.8 |
| 20260506143051 | 19 | 0 | 4.8 | 14.5 | 0.00 | 0.00 | 0.00 | 69 | 1009.8 |
| 20260506142539 | 19 | 230 | 3.2 | 14.5 | 0.00 | 0.00 | 0.00 | 69 | 1009.7 |
| 20260506142042 | 19 | 207 | 3.2 | 16.1 | 0.00 | 0.00 | 0.00 | 69 | 1009.7 |
| 20260506141545 | 19 | 235 | 3.2 | 16.1 | 0.00 | 0.00 | 0.00 | 70 | 1009.6 |
| 20260506141039 | 19 | 250 | 3.2 | 9.7 | 0.00 | 0.00 | 0.00 | 70 | 1009.6 |
| 20260506140542 | 18 | 211 | 3.2 | 8.0 | 0.00 | 0.00 | 0.00 | 70 | 1009.7 |
| 20260506140049 | 18 | 122 | 0.0 | 11.3 | 0.00 | 0.00 | 0.00 | 71 | 1009.5 |
| 20260506135538 | 18 | 144 | 3.2 | 11.3 | 0.00 | 0.00 | 0.00 | 71 | 1009.5 |
| 20260506135040 | 18 | 171 | 3.2 | 12.9 | 0.00 | 0.00 | 0.00 | 71 | 1009.4 |
| 20260506134551 | 18 | 223 | 4.8 | 12.9 | 0.00 | 0.00 | 0.00 | 71 | 1009.3 |
| 20260506134040 | 18 | 9 | 3.2 | 9.7 | 0.00 | 0.00 | 0.00 | 72 | 1009.7 |
| 20260506133541 | 18 | 175 | 3.2 | 9.7 | 0.00 | 0.00 | 0.00 | 72 | 1009.7 |
| 20260506133045 | 18 | 198 | 1.6 | 9.7 | 0.00 | 0.00 | 0.00 | 73 | 1009.5 |
| 20260506132540 | 18 | 256 | 1.6 | 11.3 | 0.00 | 0.00 | 0.00 | 73 | 1009.8 |
| 20260506132042 | 18 | 175 | 3.2 | 11.3 | 0.00 | 0.00 | 0.00 | 74 | 1009.6 |
| 20260506131558 | 18 | 126 | 1.6 | 8.0 | 0.00 | 0.00 | 0.00 | 74 | 1009.8 |
| 20260506131041 | 18 | 202 | 3.2 | 9.7 | 0.00 | 0.00 | 0.00 | 74 | 1010.0 |
| 20260506130540 | 17 | 225 | 3.2 | 9.7 | 0.00 | 0.00 | 0.00 | 75 | 1010.1 |
| 20260506130053 | 17 | 0 | 1.6 | 9.7 | 0.00 | 0.00 | 0.00 | 76 | 1010.1 |
| 20260506125539 | 17 | 213 | 3.2 | 9.7 | 0.00 | 0.00 | 0.00 | 76 | 1010.3 |
| 20260506125039 | 17 | 221 | 1.6 | 9.7 | 0.00 | 0.00 | 0.00 | 76 | 1010.3 |
| 20260506124552 | 17 | 190 | 0.0 | 6.4 | 0.00 | 0.00 | 0.00 | 76 | 1010.4 |
| 20260506124039 | 17 | 202 | 1.6 | 6.4 | 0.00 | 0.00 | 0.00 | 76 | 1010.2 |
| 20260506123539 | 17 | 0 | 1.6 | 16.1 | 0.00 | 0.00 | 0.00 | 76 | 1010.2 |
| 20260506123048 | 17 | 192 | 3.2 | 17.7 | 0.00 | 0.00 | 0.00 | 76 | 1010.2 |
| 20260506122539 | 17 | 206 | 3.2 | 17.7 | 0.00 | 0.00 | 0.00 | 76 | 1010.2 |
| 20260506122038 | 17 | 209 | 1.6 | 9.7 | 0.00 | 0.00 | 0.00 | 77 | 1010.1 |
| 20260506121548 | 17 | 242 | 3.2 | 6.4 | 0.00 | 0.00 | 0.00 | 78 | 1009.9 |
| 20260506121041 | 16 | 207 | 0.0 | 9.7 | 0.00 | 0.00 | 0.00 | 78 | 1010.1 |
| 20260506120541 | 16 | 258 | 3.2 | 9.7 | 0.00 | 0.00 | 0.00 | 78 | 1010.2 |
| 20260506120049 | 16 | 227 | 3.2 | 9.7 | 0.00 | 0.00 | 0.00 | 78 | 1010.4 |
| 20260506115541 | 16 | 245 | 3.2 | 9.7 | 0.00 | 0.00 | 0.00 | 78 | 1010.3 |
| 20260506115038 | 16 | 244 | 3.2 | 12.9 | 0.00 | 0.00 | 0.00 | 78 | 1010.2 |
| 20260506114547 | 16 | 233 | 1.6 | 14.5 | 0.00 | 0.00 | 0.00 | 79 | 1009.9 |
| 20260506114039 | 16 | 233 | 3.2 | 14.5 | 0.00 | 0.00 | 0.00 | 79 | 1010.0 |
| 20260506113539 | 16 | 271 | 1.6 | 9.7 | 0.00 | 0.00 | 0.00 | 80 | 1010.1 |
| 20260506113046 | 15 | 188 | 1.6 | 6.4 | 0.00 | 0.00 | 0.00 | 80 | 1010.4 |
| 20260506112541 | 15 | 248 | 1.6 | 4.8 | 0.00 | 0.00 | 0.00 | 81 | 1010.3 |
| 20260506112038 | 15 | 209 | 1.6 | 4.8 | 0.00 | 0.00 | 0.00 | 80 | 1010.4 |
| 20260506111552 | 15 | 217 | 0.0 | 4.8 | 0.00 | 0.00 | 0.00 | 80 | 1010.4 |
| 20260506111037 | 15 | 196 | 0.0 | 4.8 | 0.00 | 0.00 | 0.00 | 81 | 1010.6 |
| 20260506110538 | 15 | 0 | 1.6 | 4.8 | 0.00 | 0.00 | 0.00 | 81 | 1010.7 |
| 20260506110050 | 15 | 230 | 1.6 | 8.0 | 0.00 | 0.00 | 0.00 | 81 | 1010.7 |
| 20260506105539 | 15 | 250 | 1.6 | 8.0 | 0.00 | 0.00 | 0.00 | 81 | 1010.4 |
| 20260506105039 | 15 | 198 | 3.2 | 8.0 | 0.00 | 0.00 | 0.00 | 81 | 1010.3 |
| 20260506104550 | 15 | 182 | 1.6 | 6.4 | 0.00 | 0.00 | 0.00 | 82 | 1010.4 |
| 20260506104038 | 15 | 187 | 1.6 | 6.4 | 0.00 | 0.00 | 0.00 | 82 | 1010.4 |
| 20260506103538 | 14 | 0 | 0.0 | 11.3 | 0.00 | 0.00 | 0.00 | 83 | 1010.6 |
| 20260506103044 | 14 | 217 | 1.6 | 11.3 | 0.00 | 0.00 | 0.00 | 83 | 1010.3 |
| 20260506102538 | 14 | 0 | 0.0 | 6.4 | 0.00 | 0.00 | 0.00 | 83 | 1010.4 |
| 20260506102037 | 14 | 0 | 0.0 | 3.2 | 0.00 | 0.00 | 0.00 | 83 | 1010.3 |
| 20260506101544 | 14 | 0 | 1.6 | 3.2 | 0.00 | 0.00 | 0.00 | 82 | 1010.2 |
| 20260506101038 | 14 | 0 | 0.0 | 3.2 | 0.00 | 0.00 | 0.00 | 82 | 1010.2 |
| 20260506100539 | 14 | 0 | 0.0 | 4.8 | 0.00 | 0.00 | 0.00 | 82 | 1010.4 |
| 20260506100051 | 14 | 0 | 1.6 | 6.4 | 0.00 | 0.00 | 0.00 | 82 | 1010.4 |
| 20260506095538 | 14 | 0 | 1.6 | 6.4 | 0.00 | 0.00 | 0.00 | 82 | 1010.4 |
| 20260506095040 | 14 | 205 | 0.0 | 6.4 | 0.00 | 0.00 | 0.00 | 82 | 1010.3 |
| 20260506094604 | 14 | 220 | 0.0 | 6.4 | 0.00 | 0.00 | 0.00 | 82 | 1010.3 |
| 20260506094037 | 14 | 0 | 0.0 | 4.8 | 0.00 | 0.00 | 0.00 | 81 | 1010.2 |
| 20260506093540 | 14 | 0 | 0.0 | 4.8 | 0.00 | 0.00 | 0.00 | 81 | 1010.3 |
| 20260506093047 | 14 | 0 | 0.0 | 3.2 | 0.00 | 0.00 | 0.00 | 81 | 1010.3 |
| 20260506092538 | 14 | 0 | 0.0 | 4.8 | 0.00 | 0.00 | 0.00 | 81 | 1010.3 |
| 20260506092038 | 14 | 0 | 0.0 | 4.8 | 0.00 | 0.00 | 0.00 | 80 | 1010.3 |
| 20260506091549 | 14 | 275 | 1.6 | 4.8 | 0.00 | 0.00 | 0.00 | 81 | 1010.1 |
| 20260506091039 | 14 | 259 | 0.0 | 4.8 | 0.00 | 0.00 | 0.00 | 80 | 1010.2 |
| 20260506090538 | 14 | 0 | 1.6 | 9.7 | 0.00 | 0.00 | 0.00 | 80 | 1010.4 |
| 20260506090046 | 14 | 253 | 1.6 | 9.7 | 0.00 | 0.00 | 0.00 | 80 | 1010.3 |
| 20260506085538 | 14 | 182 | 1.6 | 8.0 | 0.00 | 0.00 | 0.00 | 80 | 1010.3 |
| 20260506085039 | 14 | 219 | 0.0 | 8.0 | 0.00 | 0.00 | 0.00 | 80 | 1010.2 |
| 20260506084550 | 14 | 200 | 0.0 | 8.0 | 0.00 | 0.00 | 0.00 | 80 | 1010.2 |
| 20260506084039 | 14 | 200 | 1.6 | 8.0 | 0.00 | 0.00 | 0.00 | 80 | 1010.4 |
| 20260506083543 | 14 | 0 | 1.6 | 8.0 | 0.00 | 0.00 | 0.00 | 80 | 1010.4 |
| 20260506083051 | 14 | 180 | 1.6 | 4.8 | 0.00 | 0.00 | 0.00 | 80 | 1010.4 |
| 20260506082538 | 14 | 221 | 1.6 | 6.4 | 0.00 | 0.00 | 0.00 | 80 | 1010.5 |
| 20260506082038 | 14 | 246 | 1.6 | 6.4 | 0.00 | 0.00 | 0.00 | 80 | 1010.4 |
| 20260506081546 | 14 | 229 | 1.6 | 4.8 | 0.00 | 0.00 | 0.00 | 80 | 1010.4 |
| 20260506081040 | 14 | 0 | 0.0 | 6.4 | 0.00 | 0.00 | 0.00 | 79 | 1010.5 |
| 20260506080541 | 15 | 0 | 0.0 | 6.4 | 0.00 | 0.00 | 0.00 | 79 | 1010.6 |
| 20260506073050 | 15 | 0 | 0.0 | 8.0 | 0.00 | 0.00 | 0.00 | 76 | 1010.4 |
| 20260506072543 | 15 | 200 | 0.0 | 4.8 | 0.00 | 0.00 | 0.00 | 76 | 1010.5 |
| 20260506072039 | 15 | 0 | 0.0 | 9.7 | 0.00 | 0.00 | 0.00 | 76 | 1010.5 |
| 20260506071551 | 15 | 0 | 1.6 | 9.7 | 0.00 | 0.00 | 0.00 | 76 | 1010.4 |
| 20260506071038 | 15 | 0 | 0.0 | 6.4 | 0.00 | 0.00 | 0.00 | 75 | 1010.3 |
| 20260506070542 | 15 | 0 | 1.6 | 8.0 | 0.00 | 0.00 | 0.00 | 75 | 1010.3 |
| 20260506062046 | 16 | 258 | 1.6 | 4.8 | 0.00 | 0.00 | 0.00 | 73 | 1010.1 |
| 20260506061547 | 16 | 255 | 1.6 | 4.8 | 0.00 | 0.00 | 0.00 | 72 | 1010.1 |
| 20260506061041 | 16 | 221 | 0.0 | 6.4 | 0.00 | 0.00 | 0.00 | 72 | 1010.1 |
| 20260506060541 | 16 | 0 | 1.6 | 8.0 | 0.00 | 0.00 | 0.00 | 72 | 1010.2 |
| 20260506060112 | 16 | 265 | 1.6 | 8.0 | 0.00 | 0.00 | 0.00 | 71 | 1010.2 |
| 20260506051037 | 16 | 0 | 0.0 | 6.4 | 0.00 | 0.00 | 0.00 | 68 | 1010.3 |
| 20260506050537 | 16 | 269 | 1.6 | 6.4 | 0.00 | 0.00 | 0.00 | 68 | 1010.3 |
| 20260506045041 | 17 | 213 | 1.6 | 14.5 | 0.00 | 0.00 | 0.00 | 67 | 1010.6 |
| 20260506044549 | 17 | 235 | 1.6 | 9.7 | 0.00 | 0.00 | 0.00 | 67 | 1010.5 |
| 20260506044038 | 17 | 207 | 3.2 | 9.7 | 0.00 | 0.00 | 0.00 | 67 | 1010.4 |
| 20260506043537 | 17 | 234 | 1.6 | 9.7 | 0.00 | 0.00 | 0.00 | 67 | 1010.5 |
| 20260506043050 | 16 | 186 | 1.6 | 9.7 | 0.00 | 0.00 | 0.00 | 67 | 1010.5 |
| 20260506042538 | 16 | 289 | 1.6 | 9.7 | 0.00 | 0.00 | 0.00 | 67 | 1010.5 |
| 20260506042038 | 16 | 209 | 1.6 | 9.7 | 0.00 | 0.00 | 0.00 | 68 | 1010.6 |
| 20260506041550 | 16 | 0 | 1.6 | 8.0 | 0.00 | 0.00 | 0.00 | 68 | 1010.6 |
| 20260506041037 | 16 | 267 | 1.6 | 8.0 | 0.00 | 0.00 | 0.00 | 67 | 1010.6 |
| 20260506040538 | 16 | 255 | 3.2 | 8.0 | 0.00 | 0.00 | 0.00 | 67 | 1010.6 |
| 20260506040052 | 16 | 218 | 1.6 | 6.4 | 0.00 | 0.00 | 0.00 | 67 | 1010.5 |
| 20260506035538 | 16 | 208 | 0.0 | 6.4 | 0.00 | 0.00 | 0.00 | 67 | 1010.6 |
| 20260506035037 | 16 | 219 | 1.6 | 9.7 | 0.00 | 0.00 | 0.00 | 67 | 1010.7 |
| 20260506034551 | 16 | 0 | 1.6 | 9.7 | 0.00 | 0.00 | 0.00 | 68 | 1010.6 |
| 20260506034039 | 16 | 0 | 1.6 | 8.0 | 0.00 | 0.00 | 0.00 | 67 | 1010.6 |
| 20260506033537 | 16 | 252 | 1.6 | 8.0 | 0.00 | 0.00 | 0.00 | 67 | 1010.5 |
| 20260506033052 | 16 | 231 | 1.6 | 8.0 | 0.00 | 0.00 | 0.00 | 67 | 1010.6 |
| 20260506032542 | 16 | 262 | 0.0 | 8.0 | 0.00 | 0.00 | 0.00 | 67 | 1010.5 |
| 20260506032041 | 16 | 244 | 1.6 | 9.7 | 0.00 | 0.00 | 0.00 | 67 | 1010.5 |
| 20260506031556 | 16 | 261 | 0.0 | 11.3 | 0.00 | 0.00 | 0.00 | 66 | 1010.5 |
| 20260506031044 | 16 | 241 | 1.6 | 11.3 | 0.00 | 0.00 | 0.00 | 66 | 1010.6 |
| 20260506030541 | 17 | 259 | 1.6 | 9.7 | 0.00 | 0.00 | 0.00 | 66 | 1010.5 |
| 20260506030050 | 17 | 239 | 1.6 | 9.7 | 0.00 | 0.00 | 0.00 | 65 | 1010.6 |
| 20260506025538 | 17 | 286 | 3.2 | 9.7 | 0.00 | 0.00 | 0.00 | 65 | 1010.6 |
| 20260506025038 | 17 | 294 | 1.6 | 9.7 | 0.00 | 0.00 | 0.00 | 65 | 1010.6 |
| 20260506024558 | 17 | 350 | 3.2 | 9.7 | 0.00 | 0.00 | 0.00 | 64 | 1010.4 |
| 20260506024038 | 17 | 243 | 1.6 | 8.0 | 0.00 | 0.00 | 0.00 | 64 | 1010.5 |
| 20260506023538 | 17 | 252 | 1.6 | 8.0 | 0.00 | 0.00 | 0.00 | 64 | 1010.4 |
| 20260506023050 | 17 | 273 | 1.6 | 8.0 | 0.00 | 0.00 | 0.00 | 63 | 1010.4 |
| 20260506022537 | 17 | 180 | 1.6 | 12.9 | 0.00 | 0.00 | 0.00 | 63 | 1010.3 |
| 20260506022037 | 17 | 261 | 1.6 | 12.9 | 0.00 | 0.00 | 0.00 | 63 | 1010.4 |
| 20260506021547 | 17 | 215 | 3.2 | 9.7 | 0.00 | 0.00 | 0.00 | 63 | 1010.3 |
| 20260506021039 | 17 | 0 | 0.0 | 8.0 | 0.00 | 0.00 | 0.00 | 63 | 1010.3 |
| 20260506020538 | 17 | 243 | 1.6 | 8.0 | 0.00 | 0.00 | 0.00 | 62 | 1010.4 |
| 20260506020045 | 17 | 208 | 0.0 | 4.8 | 0.00 | 0.00 | 0.00 | 63 | 1010.4 |
| 20260506015539 | 17 | 0 | 0.0 | 4.8 | 0.00 | 0.00 | 0.00 | 63 | 1010.4 |
| 20260506015038 | 18 | 134 | 0.0 | 4.8 | 0.00 | 0.00 | 0.00 | 62 | 1010.3 |
| 20260506014551 | 18 | 0 | 0.0 | 4.8 | 0.00 | 0.00 | 0.00 | 62 | 1010.2 |
| 20260506014041 | 18 | 257 | 0.0 | 6.4 | 0.00 | 0.00 | 0.00 | 61 | 1010.2 |
| 20260506013538 | 18 | 204 | 0.0 | 6.4 | 0.00 | 0.00 | 0.00 | 61 | 1010.1 |
| 20260506013046 | 18 | 0 | 1.6 | 8.0 | 0.00 | 0.00 | 0.00 | 61 | 1009.9 |
| 20260506012539 | 18 | 241 | 0.0 | 9.7 | 0.00 | 0.00 | 0.00 | 61 | 1009.8 |
| 20260506012041 | 18 | 0 | 1.6 | 9.7 | 0.00 | 0.00 | 0.00 | 60 | 1009.7 |
| 20260506011550 | 18 | 303 | 1.6 | 6.4 | 0.00 | 0.00 | 0.00 | 60 | 1009.6 |
| 20260506011038 | 18 | 238 | 1.6 | 14.5 | 0.00 | 0.00 | 0.00 | 59 | 1009.5 |
| 20260506010541 | 19 | 247 | 4.8 | 14.5 | 0.00 | 0.00 | 0.00 | 58 | 1009.5 |
| 20260506010051 | 19 | 244 | 1.6 | 8.0 | 0.00 | 0.00 | 0.00 | 58 | 1009.6 |
| 20260506005537 | 19 | 199 | 1.6 | 6.4 | 0.00 | 0.00 | 0.00 | 58 | 1009.7 |
| 20260506005038 | 19 | 238 | 1.6 | 6.4 | 0.00 | 0.00 | 0.00 | 57 | 1009.5 |
| 20260506004546 | 20 | 222 | 1.6 | 12.9 | 0.00 | 0.00 | 0.00 | 57 | 1009.5 |
| 20260506004038 | 20 | 215 | 1.6 | 12.9 | 0.00 | 0.00 | 0.00 | 57 | 1009.5 |
| 20260506003537 | 20 | 264 | 3.2 | 12.9 | 0.00 | 0.00 | 0.00 | 56 | 1009.4 |
| 20260506003046 | 20 | 229 | 1.6 | 6.4 | 0.00 | 0.00 | 0.00 | 56 | 1009.4 |
| 20260506002541 | 20 | 264 | 1.6 | 11.3 | 0.00 | 0.00 | 0.00 | 55 | 1009.2 |
| 20260506002039 | 20 | 167 | 1.6 | 11.3 | 0.00 | 0.00 | 0.00 | 55 | 1009.1 |
| 20260506001551 | 20 | 199 | 3.2 | 8.0 | 0.00 | 0.00 | 0.00 | 55 | 1008.9 |
| 20260506001038 | 20 | 207 | 1.6 | 8.0 | 0.00 | 0.00 | 0.00 | 54 | 1009.0 |